createdAt,value
2019-03-02T00:01:34.425Z,96.70
2019-03-02T00:04:09.718Z,97.00
2019-03-02T00:06:35.757Z,97.30
2019-03-02T00:09:07.176Z,97.70
2019-03-02T00:11:36.181Z,99.30
2019-03-02T00:16:33.955Z,97.50
2019-03-02T00:19:06.659Z,97.60
2019-03-02T00:24:05.864Z,98.10
2019-03-02T00:26:34.716Z,98.20
2019-03-02T00:31:33.269Z,98.80
2019-03-02T00:39:01.668Z,98.10
2019-03-02T00:41:31.382Z,98.00
2019-03-02T00:44:04.829Z,98.00
2019-03-02T00:46:33.956Z,98.10
2019-03-02T00:49:04.234Z,98.10
2019-03-02T00:51:33.534Z,98.10
2019-03-02T00:54:02.801Z,98.10
2019-03-02T00:56:31.910Z,98.50
2019-03-02T01:01:31.715Z,98.80
2019-03-02T01:04:00.784Z,98.20
2019-03-02T01:06:29.844Z,98.50
2019-03-02T01:08:58.910Z,98.50
2019-03-02T01:11:29.529Z,98.30
2019-03-02T01:13:58.759Z,98.10
2019-03-02T01:16:27.904Z,97.90
2019-03-02T01:21:25.520Z,98.20
2019-03-02T01:23:54.703Z,97.70
2019-03-02T01:26:25.909Z,97.60
2019-03-02T01:28:55.217Z,97.50
2019-03-02T01:33:53.025Z,97.00
2019-03-02T01:36:22.131Z,96.70
2019-03-02T01:38:53.966Z,97.00
2019-03-02T01:43:50.629Z,97.20
2019-03-02T01:46:19.769Z,97.20
2019-03-02T01:48:48.847Z,97.60
2019-03-02T01:51:19.674Z,97.20
2019-03-02T01:53:48.568Z,97.50
2019-03-02T01:56:17.580Z,97.30
2019-03-02T01:58:46.781Z,97.50
2019-03-02T02:01:15.853Z,97.20
2019-03-02T02:06:15.529Z,97.60
2019-03-02T02:08:44.844Z,97.70
2019-03-02T02:11:14.502Z,97.90
2019-03-02T02:13:45.125Z,97.50
2019-03-02T02:16:14.328Z,97.80
2019-03-02T02:18:44.030Z,97.50
2019-03-02T02:21:13.275Z,97.50
2019-03-02T02:28:44.877Z,97.70
2019-03-02T02:31:14.428Z,97.60
2019-03-02T02:33:44.678Z,97.30
2019-03-02T02:36:18.457Z,97.40
2019-03-02T02:38:44.565Z,97.40
2019-03-02T02:43:44.102Z,97.00
2019-03-02T02:46:13.331Z,96.90
2019-03-02T02:51:12.376Z,97.00
2019-03-02T02:56:14.350Z,96.40
2019-03-02T02:58:42.687Z,96.70
2019-03-02T03:01:11.518Z,96.80
2019-03-02T03:03:40.617Z,95.90
2019-03-02T03:06:09.690Z,95.70
2019-03-02T03:11:14.157Z,95.40
2019-03-02T03:13:43.233Z,95.30
2019-03-02T03:16:16.638Z,95.10
2019-03-02T03:18:46.885Z,95.40
2019-03-02T03:21:14.687Z,95.70
2019-03-02T03:23:43.999Z,95.30
2019-03-02T03:26:14.449Z,95.10
2019-03-02T03:28:46.282Z,95.20
2019-03-02T03:31:23.051Z,95.80
2019-03-02T03:36:16.347Z,94.70
2019-03-02T03:38:45.513Z,95.20
2019-03-02T03:41:14.446Z,95.20
2019-03-02T03:43:44.401Z,95.50
2019-03-02T03:46:18.042Z,94.80
2019-03-02T03:48:44.587Z,95.00
2019-03-02T03:51:13.805Z,94.90
2019-03-02T03:53:42.666Z,94.70
2019-03-02T03:58:41.467Z,94.90
2019-03-02T04:01:17.114Z,94.60
2019-03-02T04:06:10.460Z,95.00
2019-03-02T04:08:39.499Z,95.00
2019-03-02T04:11:08.492Z,94.80
2019-03-02T04:13:44.170Z,95.10
2019-03-02T04:18:58.223Z,95.30
2019-03-02T04:21:36.657Z,95.40
2019-03-02T04:24:08.487Z,95.10
2019-03-02T04:26:38.385Z,95.00
2019-03-02T04:29:11.425Z,95.00
2019-03-02T04:36:43.272Z,94.50
2019-03-02T04:39:14.973Z,94.30
2019-03-02T04:41:44.525Z,94.10
2019-03-02T04:46:47.732Z,93.80
2019-03-02T04:51:44.778Z,93.30
2019-03-02T04:54:13.897Z,93.30
2019-03-02T04:56:43.893Z,93.20
2019-03-02T04:59:13.364Z,93.50
2019-03-02T05:01:43.716Z,93.10
2019-03-02T05:04:14.601Z,93.30
2019-03-02T05:09:17.238Z,92.80
2019-03-02T05:11:49.883Z,92.80
2019-03-02T05:14:19.112Z,92.80
2019-03-02T05:16:48.540Z,92.50
2019-03-02T05:19:17.611Z,92.70
2019-03-02T05:21:47.715Z,92.20
2019-03-02T05:24:16.779Z,92.30
2019-03-02T05:26:45.588Z,92.20
2019-03-02T05:31:45.995Z,92.20
2019-03-02T05:36:52.303Z,91.80
2019-03-02T05:39:21.665Z,91.60
2019-03-02T05:41:53.203Z,91.20
2019-03-02T05:46:51.967Z,91.50
2019-03-02T05:49:21.044Z,91.10
2019-03-02T05:51:54.022Z,90.80
2019-03-02T05:57:04.146Z,90.90
2019-03-02T05:59:31.314Z,91.00
2019-03-02T06:02:00.751Z,91.00
2019-03-02T06:04:29.969Z,90.90
2019-03-02T06:06:59.073Z,90.70
2019-03-02T06:09:29.288Z,90.60
2019-03-02T06:14:30.546Z,90.60
2019-03-02T06:19:29.059Z,90.40
2019-03-02T06:22:01.045Z,90.60
2019-03-02T06:24:32.865Z,90.50
2019-03-02T06:27:02.561Z,90.60
2019-03-02T06:29:34.505Z,90.40
2019-03-02T06:32:03.774Z,90.40
2019-03-02T06:37:01.850Z,90.50
2019-03-02T06:44:30.787Z,90.00
2019-03-02T06:47:00.855Z,90.00
2019-03-02T06:49:30.039Z,90.10
2019-03-02T06:51:59.252Z,90.00
2019-03-02T06:56:57.998Z,90.50
2019-03-02T06:59:27.284Z,90.50
2019-03-02T07:04:35.313Z,90.30
2019-03-02T07:07:07.621Z,90.20
2019-03-02T07:09:36.628Z,89.80
2019-03-02T07:12:09.527Z,89.70
2019-03-02T07:14:41.313Z,90.30
2019-03-02T07:17:10.455Z,90.20
2019-03-02T07:19:43.946Z,89.90
2019-03-02T07:22:16.856Z,89.40
2019-03-02T07:24:46.907Z,89.90
2019-03-02T07:29:49.746Z,90.20
2019-03-02T07:32:18.945Z,90.70
2019-03-02T07:34:48.176Z,90.40
2019-03-02T07:37:17.514Z,90.50
2019-03-02T07:39:48.805Z,89.80
2019-03-02T07:42:20.459Z,90.20
2019-03-02T07:44:49.615Z,89.90
2019-03-02T07:47:24.091Z,89.30
2019-03-02T07:54:58.074Z,88.80
2019-03-02T07:57:22.331Z,88.60
2019-03-02T07:59:53.190Z,88.70
2019-03-02T08:02:25.846Z,88.20
2019-03-02T08:04:55.450Z,87.80
2019-03-02T08:07:28.795Z,88.00
2019-03-02T08:09:58.939Z,87.60
2019-03-02T08:12:29.155Z,90.20
2019-03-02T08:14:58.381Z,88.20
2019-03-02T08:17:27.673Z,88.10
2019-03-02T08:19:56.972Z,88.40
2019-03-02T08:22:26.114Z,88.40
2019-03-02T08:24:57.820Z,87.80
2019-03-02T08:32:27.453Z,87.50
2019-03-02T08:39:55.650Z,86.30
2019-03-02T08:44:54.037Z,85.80
2019-03-02T08:47:24.341Z,86.40
2019-03-02T08:49:56.080Z,86.30
2019-03-02T08:52:28.983Z,87.00
2019-03-02T08:54:57.010Z,86.50
2019-03-02T08:59:56.265Z,85.40
2019-03-02T09:02:25.356Z,84.00
2019-03-02T09:04:54.233Z,84.10
2019-03-02T09:07:23.035Z,84.80
2019-03-02T09:09:52.099Z,83.10
2019-03-02T09:12:21.823Z,82.60
2019-03-02T09:14:51.854Z,83.50
2019-03-02T09:19:49.136Z,83.30
2019-03-02T09:22:20.849Z,83.20
2019-03-02T09:24:49.125Z,82.20
2019-03-02T09:27:18.399Z,82.60
2019-03-02T09:29:47.463Z,81.50
2019-03-02T09:32:16.613Z,81.90
2019-03-02T09:34:45.439Z,82.20
2019-03-02T09:37:14.215Z,81.70
2019-03-02T09:42:11.548Z,83.10
2019-03-02T09:44:40.399Z,83.90
2019-03-02T09:47:11.999Z,81.00
2019-03-02T09:49:45.962Z,81.70
2019-03-02T09:52:15.022Z,81.40
2019-03-02T09:54:44.071Z,81.50
2019-03-02T09:57:13.272Z,81.00
2019-03-02T09:59:45.448Z,78.70
2019-03-02T10:02:14.470Z,80.20
2019-03-02T10:07:12.319Z,80.80
2019-03-02T10:09:41.086Z,80.50
2019-03-02T10:12:13.433Z,80.00
2019-03-02T10:14:40.420Z,78.80
2019-03-02T10:17:09.278Z,79.10
2019-03-02T10:19:37.998Z,78.50
2019-03-02T10:22:06.721Z,75.80
2019-03-02T10:27:05.978Z,74.80
2019-03-02T10:29:35.150Z,75.60
2019-03-02T10:32:04.506Z,73.10
2019-03-02T10:34:33.327Z,73.00
2019-03-02T10:37:03.533Z,72.90
2019-03-02T10:39:33.660Z,70.40
2019-03-02T10:42:02.537Z,70.30
2019-03-02T10:44:31.374Z,69.60
2019-03-02T10:49:28.543Z,69.10
2019-03-02T10:51:57.517Z,70.20
2019-03-02T10:54:26.439Z,70.20
2019-03-02T10:56:56.728Z,68.10
2019-03-02T10:59:26.548Z,69.00
2019-03-02T11:01:55.478Z,70.00
2019-03-02T11:04:49.480Z,66.10
2019-03-02T11:07:52.689Z,64.10
2019-03-02T11:10:52.200Z,62.80
2019-03-02T11:13:38.686Z,64.20
2019-03-02T11:16:35.709Z,62.70
2019-03-02T11:22:15.177Z,62.30
2019-03-02T11:25:03.565Z,63.10
2019-03-02T11:27:54.774Z,63.00
2019-03-02T11:30:36.106Z,62.10
2019-03-02T11:33:16.762Z,60.60
2019-03-02T11:36:04.406Z,59.60
2019-03-02T11:38:50.866Z,60.10
2019-03-02T11:44:45.967Z,59.80
2019-03-02T11:47:23.684Z,58.50
2019-03-02T11:50:10.866Z,60.10
2019-03-02T11:52:54.883Z,58.40
2019-03-02T11:55:52.318Z,58.50
2019-03-02T11:58:41.338Z,58.70
2019-03-02T12:01:30.042Z,58.70
2019-03-02T12:04:17.288Z,57.30
2019-03-02T12:07:03.974Z,68.00
2019-03-02T12:09:51.869Z,57.80
2019-03-02T12:12:51.292Z,58.00
2019-03-02T12:15:49.406Z,56.60
2019-03-02T12:18:46.881Z,57.50
2019-03-02T12:21:28.089Z,57.80
2019-03-02T12:24:14.954Z,57.80
2019-03-02T12:26:55.914Z,57.60
2019-03-02T12:29:46.059Z,57.90
2019-03-02T12:32:28.591Z,57.60
2019-03-02T12:35:25.750Z,56.10
2019-03-02T12:38:13.761Z,67.00
2019-03-02T12:41:16.728Z,56.00
2019-03-02T12:44:01.852Z,54.80
2019-03-02T12:46:58.292Z,56.10
2019-03-02T12:49:31.790Z,56.50
2019-03-02T12:52:22.806Z,56.40
2019-03-02T12:54:59.183Z,56.10
2019-03-02T12:57:41.322Z,55.40
2019-03-02T13:00:30.750Z,54.70
2019-03-02T13:03:06.811Z,53.50
2019-03-02T13:08:31.399Z,54.50
2019-03-02T13:11:34.754Z,55.20
2019-03-02T13:14:28.920Z,55.30
2019-03-02T13:17:22.602Z,55.30
2019-03-02T13:20:28.692Z,54.30
2019-03-02T13:23:10.806Z,55.40
2019-03-02T13:25:56.586Z,55.10
2019-03-02T13:28:46.399Z,55.00
2019-03-02T13:31:49.707Z,54.70
2019-03-02T13:34:43.879Z,55.10
2019-03-02T13:37:22.870Z,55.10
2019-03-02T13:42:50.994Z,54.20
2019-03-02T13:45:26.415Z,55.30
2019-03-02T13:48:14.661Z,54.80
2019-03-02T13:50:58.833Z,55.60
2019-03-02T13:53:53.570Z,55.90
2019-03-02T13:56:41.998Z,54.60
2019-03-02T14:02:09.241Z,54.80
2019-03-02T14:04:48.037Z,54.90
2019-03-02T14:07:32.810Z,54.40
2019-03-02T14:10:30.481Z,54.50
2019-03-02T14:13:31.978Z,54.80
2019-03-02T14:16:23.126Z,54.40
2019-03-02T14:19:19.175Z,55.30
2019-03-02T14:22:14.834Z,54.40
2019-03-02T14:24:53.865Z,55.10
2019-03-02T14:27:29.454Z,55.00
2019-03-02T14:32:36.424Z,55.00
2019-03-02T14:35:30.609Z,55.50
2019-03-02T14:38:20.194Z,55.50
2019-03-02T14:41:13.505Z,55.80
2019-03-02T14:44:00.550Z,56.40
2019-03-02T14:46:39.218Z,56.30
2019-03-02T14:49:30.233Z,56.30
2019-03-02T14:52:08.206Z,55.80
2019-03-02T14:54:46.023Z,56.30
2019-03-02T14:57:24.741Z,56.20
2019-03-02T15:00:11.541Z,56.60
2019-03-02T15:02:58.009Z,56.10
2019-03-02T15:05:37.730Z,56.80
2019-03-02T15:08:19.616Z,56.90
2019-03-02T15:11:25.823Z,56.40
2019-03-02T15:14:13.604Z,56.70
2019-03-02T15:16:53.763Z,56.30
2019-03-02T15:19:57.283Z,56.70
2019-03-02T15:22:34.443Z,56.20
2019-03-02T15:25:14.978Z,56.00
2019-03-02T15:28:08.618Z,58.40
2019-03-02T15:30:50.679Z,56.70
2019-03-02T15:33:38.558Z,54.70
2019-03-02T15:36:25.192Z,54.80
2019-03-02T15:38:59.924Z,54.80
2019-03-02T15:41:50.927Z,55.30
2019-03-02T15:44:46.555Z,55.00
2019-03-02T15:50:17.296Z,55.40
2019-03-02T15:53:01.499Z,56.20
2019-03-02T15:55:45.360Z,56.40
2019-03-02T15:58:32.425Z,56.60
2019-03-02T16:01:19.280Z,56.00
2019-03-02T16:04:03.515Z,56.40
2019-03-02T16:06:39.570Z,56.60
2019-03-02T16:12:09.931Z,56.10
2019-03-02T16:14:49.949Z,57.00
2019-03-02T16:17:39.959Z,56.90
2019-03-02T16:20:18.937Z,56.60
2019-03-02T16:23:16.855Z,57.30
2019-03-02T16:25:54.929Z,57.10
2019-03-02T16:28:34.373Z,57.10
2019-03-02T16:31:21.408Z,56.50
2019-03-02T16:36:49.038Z,56.80
2019-03-02T16:39:30.340Z,57.10
2019-03-02T16:42:36.609Z,57.30
2019-03-02T16:45:24.286Z,57.30
2019-03-02T16:48:14.890Z,57.30
2019-03-02T16:51:02.759Z,57.20
2019-03-02T16:53:39.899Z,57.60
2019-03-02T16:56:26.782Z,57.70
2019-03-02T16:59:01.105Z,57.70
2019-03-02T17:01:57.692Z,57.50
2019-03-02T17:04:35.874Z,58.40
2019-03-02T17:09:53.294Z,58.70
2019-03-02T17:12:31.510Z,59.00
2019-03-02T17:15:25.137Z,59.10
2019-03-02T17:18:11.923Z,59.40
2019-03-02T17:20:58.566Z,59.70
2019-03-02T17:23:52.631Z,59.80
2019-03-02T17:26:35.898Z,60.00
2019-03-02T17:29:23.751Z,60.00
2019-03-02T17:32:20.722Z,60.30
2019-03-02T17:35:07.905Z,59.90
2019-03-02T17:37:58.615Z,59.70
2019-03-02T17:43:31.703Z,60.60
2019-03-02T17:46:30.621Z,61.90
2019-03-02T17:49:29.694Z,62.80
2019-03-02T17:52:20.054Z,66.70
2019-03-02T17:54:55.326Z,65.40
2019-03-02T17:57:41.776Z,65.70
2019-03-02T18:00:21.571Z,66.40
2019-03-02T18:03:07.931Z,67.60
2019-03-02T18:06:02.073Z,66.90
2019-03-02T18:08:44.960Z,65.50
2019-03-02T18:14:16.026Z,65.50
2019-03-02T18:17:05.446Z,66.30
2019-03-02T18:19:34.218Z,66.70
2019-03-02T18:22:06.403Z,66.90
2019-03-02T18:24:35.415Z,66.90
2019-03-02T18:27:03.980Z,67.60
2019-03-02T18:29:32.827Z,68.00
2019-03-02T18:34:31.270Z,67.20
2019-03-02T18:37:00.013Z,68.50
2019-03-02T18:39:28.845Z,68.80
2019-03-02T18:41:58.260Z,70.00
2019-03-02T18:44:27.864Z,71.10
2019-03-02T18:46:56.766Z,72.00
2019-03-02T18:49:43.428Z,72.30
2019-03-02T18:52:31.270Z,71.70
2019-03-02T18:57:28.562Z,72.40
2019-03-02T18:59:57.342Z,73.50
2019-03-02T19:02:26.201Z,73.10
2019-03-02T19:04:55.082Z,73.20
2019-03-02T19:07:23.920Z,73.30
2019-03-02T19:09:52.715Z,73.90
2019-03-02T19:12:21.470Z,73.80
2019-03-02T19:14:53.824Z,77.00
2019-03-02T19:19:49.165Z,72.50
2019-03-02T19:22:17.962Z,73.50
2019-03-02T19:24:46.729Z,73.90
2019-03-02T19:27:15.867Z,73.70
2019-03-02T19:29:44.959Z,73.40
2019-03-02T19:32:13.805Z,72.10
2019-03-02T19:34:42.614Z,72.90
2019-03-02T19:39:40.395Z,72.90
2019-03-02T19:42:09.121Z,73.90
2019-03-02T19:44:37.862Z,74.00
2019-03-02T19:47:06.650Z,73.70
2019-03-02T19:49:35.445Z,74.30
2019-03-02T19:52:04.564Z,74.80
2019-03-02T19:54:33.314Z,75.10
2019-03-02T19:57:02.121Z,74.70
2019-03-02T20:01:59.415Z,74.60
2019-03-02T20:04:28.185Z,75.70
2019-03-02T20:06:57.006Z,76.10
2019-03-02T20:09:25.793Z,76.30
2019-03-02T20:11:54.527Z,76.50
2019-03-02T20:14:23.323Z,77.30
2019-03-02T20:16:52.214Z,76.80
2019-03-02T20:19:21.783Z,76.60
2019-03-02T20:24:19.160Z,77.20
2019-03-02T20:26:48.256Z,78.30
2019-03-02T20:29:17.144Z,78.80
2019-03-02T20:31:45.950Z,79.30
2019-03-02T20:34:14.710Z,79.80
2019-03-02T20:36:43.543Z,80.40
2019-03-02T20:39:12.466Z,80.60
2019-03-02T20:41:41.241Z,79.60
2019-03-02T20:46:38.377Z,80.20
2019-03-02T20:49:07.194Z,82.10
2019-03-02T20:51:35.963Z,81.50
2019-03-02T20:54:04.707Z,81.70
2019-03-02T20:56:33.923Z,81.60
2019-03-02T20:59:02.857Z,81.40
2019-03-02T21:01:31.809Z,81.50
2019-03-02T21:08:57.482Z,82.00
2019-03-02T21:11:26.360Z,83.00
2019-03-02T21:13:55.286Z,83.80
2019-03-02T21:16:24.059Z,83.80
2019-03-02T21:18:52.859Z,83.50
2019-03-02T21:21:21.644Z,83.50
2019-03-02T21:23:50.438Z,83.20
2019-03-02T21:28:47.925Z,83.50
2019-03-02T21:31:16.711Z,84.40
2019-03-02T21:33:45.522Z,84.70
2019-03-02T21:36:14.378Z,85.60
2019-03-02T21:38:43.505Z,85.80
2019-03-02T21:41:12.345Z,85.60
2019-03-02T21:43:41.066Z,85.70
2019-03-02T21:46:09.920Z,85.00
2019-03-02T21:51:08.237Z,85.30
2019-03-02T21:53:37.012Z,86.10
2019-03-02T21:56:05.887Z,85.90
2019-03-02T21:58:34.694Z,85.80
2019-03-02T22:01:03.519Z,86.30
2019-03-02T22:03:32.285Z,86.50
2019-03-02T22:06:01.099Z,85.90
2019-03-02T22:08:29.898Z,85.40
2019-03-02T22:13:29.264Z,85.00
2019-03-02T22:15:58.062Z,85.80
2019-03-02T22:18:26.875Z,85.90
2019-03-02T22:20:55.622Z,85.50
2019-03-02T22:23:24.407Z,85.50
2019-03-02T22:25:53.210Z,84.50
2019-03-02T22:28:21.981Z,85.30
2019-03-02T22:30:50.766Z,84.00
2019-03-02T22:35:48.322Z,83.80
2019-03-02T22:38:17.167Z,84.40
2019-03-02T22:40:45.942Z,84.10
2019-03-02T22:43:14.767Z,84.50
2019-03-02T22:45:43.902Z,84.50
2019-03-02T22:48:12.699Z,84.30
2019-03-02T22:50:41.488Z,83.90
2019-03-02T22:58:07.730Z,82.60
2019-03-02T23:01:18.080Z,83.60
2019-03-02T23:03:45.597Z,83.80
2019-03-02T23:06:14.350Z,83.80
2019-03-02T23:08:43.249Z,84.10
2019-03-02T23:11:12.052Z,84.10
2019-03-02T23:13:40.812Z,83.20
2019-03-02T23:16:09.570Z,82.80
2019-03-02T23:21:06.666Z,83.10
2019-03-02T23:23:35.476Z,84.10
2019-03-02T23:26:04.188Z,84.20
2019-03-02T23:28:32.922Z,84.00
2019-03-02T23:31:01.718Z,83.70
2019-03-02T23:33:31.089Z,83.40
2019-03-02T23:36:00.057Z,82.00
2019-03-02T23:40:57.704Z,82.60
2019-03-02T23:43:26.553Z,83.90
2019-03-02T23:45:55.373Z,83.30
2019-03-02T23:48:24.205Z,83.90
2019-03-02T23:50:53.038Z,83.40
2019-03-02T23:53:22.129Z,83.80
2019-03-02T23:55:50.862Z,83.40
2019-03-02T23:58:19.594Z,83.80
